sensor_id;sensor_type;location;lat;lon;timestamp;pressure;altitude;pressure_sealevel;temperature;humidity
52651;BME280;38537;47.226;39.702;2022-10-16T00:01:16;101627.41;;;8.73;56.26
52651;BME280;38537;47.226;39.702;2022-10-16T00:03:45;101614.56;;;8.72;56.30
52651;BME280;38537;47.226;39.702;2022-10-16T00:06:13;101637.88;;;8.61;56.27
52651;BME280;38537;47.226;39.702;2022-10-16T00:08:43;101633.75;;;8.69;56.47
52651;BME280;38537;47.226;39.702;2022-10-16T00:11:17;101614.00;;;8.70;56.40
52651;BME280;38537;47.226;39.702;2022-10-16T00:13:48;101630.38;;;8.62;56.43
52651;BME280;38537;47.226;39.702;2022-10-16T00:16:16;101617.03;;;8.64;56.45
52651;BME280;38537;47.226;39.702;2022-10-16T00:18:44;101644.03;;;8.63;56.54
52651;BME280;38537;47.226;39.702;2022-10-16T00:21:26;101638.53;;;8.73;56.74
52651;BME280;38537;47.226;39.702;2022-10-16T00:24:12;101635.34;;;8.59;56.31
52651;BME280;38537;47.226;39.702;2022-10-16T00:26:39;101638.97;;;8.60;56.55
52651;BME280;38537;47.226;39.702;2022-10-16T00:29:08;101637.78;;;8.51;56.38
52651;BME280;38537;47.226;39.702;2022-10-16T00:31:35;101636.53;;;8.37;56.82
52651;BME280;38537;47.226;39.702;2022-10-16T00:34:02;101643.72;;;8.33;56.90
52651;BME280;38537;47.226;39.702;2022-10-16T00:36:30;101629.13;;;8.25;57.17
52651;BME280;38537;47.226;39.702;2022-10-16T00:38:59;101632.97;;;8.19;57.78
52651;BME280;38537;47.226;39.702;2022-10-16T00:41:28;101639.16;;;8.26;57.75
52651;BME280;38537;47.226;39.702;2022-10-16T00:44:00;101623.97;;;8.12;58.09
52651;BME280;38537;47.226;39.702;2022-10-16T00:46:42;101622.50;;;8.05;58.47
52651;BME280;38537;47.226;39.702;2022-10-16T00:49:11;101646.69;;;8.04;58.48
52651;BME280;38537;47.226;39.702;2022-10-16T00:51:43;101635.63;;;8.09;58.35
52651;BME280;38537;47.226;39.702;2022-10-16T00:54:25;101636.84;;;8.18;58.35
52651;BME280;38537;47.226;39.702;2022-10-16T00:56:53;101657.94;;;8.14;57.86
52651;BME280;38537;47.226;39.702;2022-10-16T00:59:34;101644.63;;;8.16;58.41
52651;BME280;38537;47.226;39.702;2022-10-16T01:02:04;101650.00;;;8.01;58.47
52651;BME280;38537;47.226;39.702;2022-10-16T01:04:35;101658.63;;;8.00;58.60
52651;BME280;38537;47.226;39.702;2022-10-16T01:15:59;101632.22;;;7.80;59.07
52651;BME280;38537;47.226;39.702;2022-10-16T01:18:53;101653.59;;;7.80;59.50
52651;BME280;38537;47.226;39.702;2022-10-16T01:21:22;101647.59;;;7.66;59.21
52651;BME280;38537;47.226;39.702;2022-10-16T01:29:42;101661.41;;;7.78;59.83
52651;BME280;38537;47.226;39.702;2022-10-16T01:37:53;101659.88;;;7.48;60.10
52651;BME280;38537;47.226;39.702;2022-10-16T01:40:23;101660.16;;;7.69;60.80
52651;BME280;38537;47.226;39.702;2022-10-16T01:42:57;101659.09;;;7.53;60.05
52651;BME280;38537;47.226;39.702;2022-10-16T01:45:28;101676.53;;;7.48;60.16
52651;BME280;38537;47.226;39.702;2022-10-16T01:47:58;101677.91;;;7.46;60.07
52651;BME280;38537;47.226;39.702;2022-10-16T01:50:27;101674.97;;;7.36;60.76
52651;BME280;38537;47.226;39.702;2022-10-16T01:52:56;101680.00;;;7.39;60.95
52651;BME280;38537;47.226;39.702;2022-10-16T01:55:28;101679.69;;;7.35;60.68
52651;BME280;38537;47.226;39.702;2022-10-16T01:57:59;101682.38;;;7.30;60.47
52651;BME280;38537;47.226;39.702;2022-10-16T02:00:29;101677.84;;;7.24;61.29
52651;BME280;38537;47.226;39.702;2022-10-16T02:02:58;101681.38;;;7.19;60.99
52651;BME280;38537;47.226;39.702;2022-10-16T02:05:36;101683.91;;;7.21;61.41
52651;BME280;38537;47.226;39.702;2022-10-16T02:08:08;101677.16;;;7.17;60.94
52651;BME280;38537;47.226;39.702;2022-10-16T02:10:37;101691.31;;;7.15;61.34
52651;BME280;38537;47.226;39.702;2022-10-16T02:13:23;101692.44;;;7.14;61.62
52651;BME280;38537;47.226;39.702;2022-10-16T02:15:51;101688.63;;;7.04;61.44
52651;BME280;38537;47.226;39.702;2022-10-16T02:18:20;101671.72;;;7.05;61.88
52651;BME280;38537;47.226;39.702;2022-10-16T02:20:53;101689.56;;;7.09;61.58
52651;BME280;38537;47.226;39.702;2022-10-16T02:26:32;101692.50;;;7.03;61.89
52651;BME280;38537;47.226;39.702;2022-10-16T02:29:05;101711.69;;;7.21;61.90
52651;BME280;38537;47.226;39.702;2022-10-16T02:31:38;101703.34;;;7.04;61.54
52651;BME280;38537;47.226;39.702;2022-10-16T02:34:09;101708.16;;;7.09;61.53
52651;BME280;38537;47.226;39.702;2022-10-16T02:36:40;101696.22;;;7.08;61.42
52651;BME280;38537;47.226;39.702;2022-10-16T02:39:09;101709.16;;;7.03;61.66
52651;BME280;38537;47.226;39.702;2022-10-16T02:41:37;101700.72;;;6.98;61.71
52651;BME280;38537;47.226;39.702;2022-10-16T02:44:05;101670.34;;;6.74;61.82
52651;BME280;38537;47.226;39.702;2022-10-16T02:46:32;101698.47;;;6.95;61.61
52651;BME280;38537;47.226;39.702;2022-10-16T02:48:59;101692.84;;;6.90;61.71
52651;BME280;38537;47.226;39.702;2022-10-16T02:51:27;101684.81;;;6.93;62.03
52651;BME280;38537;47.226;39.702;2022-10-16T02:53:54;101697.19;;;6.85;61.67
52651;BME280;38537;47.226;39.702;2022-10-16T02:56:22;101698.28;;;6.84;62.26
52651;BME280;38537;47.226;39.702;2022-10-16T02:58:49;101694.44;;;6.85;61.81
52651;BME280;38537;47.226;39.702;2022-10-16T03:01:17;101701.06;;;6.84;61.90
52651;BME280;38537;47.226;39.702;2022-10-16T03:03:45;101695.41;;;6.79;62.34
52651;BME280;38537;47.226;39.702;2022-10-16T03:06:13;101693.75;;;6.78;62.31
52651;BME280;38537;47.226;39.702;2022-10-16T03:08:40;101702.25;;;6.88;62.32
52651;BME280;38537;47.226;39.702;2022-10-16T03:11:08;101700.47;;;6.99;61.83
52651;BME280;38537;47.226;39.702;2022-10-16T03:13:35;101700.81;;;6.86;61.75
52651;BME280;38537;47.226;39.702;2022-10-16T03:16:02;101705.09;;;6.77;62.10
52651;BME280;38537;47.226;39.702;2022-10-16T03:18:29;101702.56;;;6.75;62.34
52651;BME280;38537;47.226;39.702;2022-10-16T03:20:57;101697.00;;;6.75;62.42
52651;BME280;38537;47.226;39.702;2022-10-16T03:23:24;101697.00;;;6.75;62.03
52651;BME280;38537;47.226;39.702;2022-10-16T03:25:52;101711.47;;;6.77;62.54
52651;BME280;38537;47.226;39.702;2022-10-16T03:28:21;101705.34;;;6.75;62.37
52651;BME280;38537;47.226;39.702;2022-10-16T03:30:49;101719.66;;;6.84;61.82
52651;BME280;38537;47.226;39.702;2022-10-16T03:33:17;101711.81;;;6.81;61.96
52651;BME280;38537;47.226;39.702;2022-10-16T03:35:51;101712.47;;;6.71;62.39
52651;BME280;38537;47.226;39.702;2022-10-16T03:38:20;101710.81;;;6.70;62.02
52651;BME280;38537;47.226;39.702;2022-10-16T03:40:51;101721.56;;;6.67;62.55
52651;BME280;38537;47.226;39.702;2022-10-16T03:43:18;101706.91;;;6.54;63.03
52651;BME280;38537;47.226;39.702;2022-10-16T03:45:45;101720.41;;;6.51;63.02
52651;BME280;38537;47.226;39.702;2022-10-16T03:48:13;101718.69;;;6.62;63.05
52651;BME280;38537;47.226;39.702;2022-10-16T03:50:40;101724.38;;;6.55;62.50
52651;BME280;38537;47.226;39.702;2022-10-16T03:53:07;101707.06;;;6.48;62.95
52651;BME280;38537;47.226;39.702;2022-10-16T03:55:36;101716.47;;;6.47;63.08
52651;BME280;38537;47.226;39.702;2022-10-16T03:58:03;101728.97;;;6.61;62.59
52651;BME280;38537;47.226;39.702;2022-10-16T04:00:31;101714.31;;;6.49;63.38
52651;BME280;38537;47.226;39.702;2022-10-16T04:02:58;101730.41;;;6.64;63.09
52651;BME280;38537;47.226;39.702;2022-10-16T04:05:26;101744.28;;;6.64;62.99
52651;BME280;38537;47.226;39.702;2022-10-16T04:07:53;101741.28;;;6.53;63.16
52651;BME280;38537;47.226;39.702;2022-10-16T04:10:22;101726.91;;;6.57;63.34
52651;BME280;38537;47.226;39.702;2022-10-16T04:12:49;101727.81;;;6.45;63.03
52651;BME280;38537;47.226;39.702;2022-10-16T04:15:16;101728.75;;;6.51;63.38
52651;BME280;38537;47.226;39.702;2022-10-16T04:17:44;101733.44;;;6.50;63.44
52651;BME280;38537;47.226;39.702;2022-10-16T04:20:12;101744.50;;;6.62;63.14
52651;BME280;38537;47.226;39.702;2022-10-16T04:22:39;101740.75;;;6.68;62.75
52651;BME280;38537;47.226;39.702;2022-10-16T04:25:07;101748.13;;;6.63;63.52
52651;BME280;38537;47.226;39.702;2022-10-16T04:27:34;101754.88;;;6.67;63.61
52651;BME280;38537;47.226;39.702;2022-10-16T04:30:04;101757.69;;;6.55;63.53
52651;BME280;38537;47.226;39.702;2022-10-16T04:32:31;101765.63;;;6.63;63.74
52651;BME280;38537;47.226;39.702;2022-10-16T04:34:59;101774.56;;;6.65;63.37
52651;BME280;38537;47.226;39.702;2022-10-16T04:37:27;101785.91;;;6.64;63.82
52651;BME280;38537;47.226;39.702;2022-10-16T04:39:55;101772.16;;;6.57;63.86
52651;BME280;38537;47.226;39.702;2022-10-16T04:42:22;101762.56;;;6.48;63.79
52651;BME280;38537;47.226;39.702;2022-10-16T04:44:50;101765.41;;;6.53;63.87
52651;BME280;38537;47.226;39.702;2022-10-16T04:47:17;101772.75;;;6.59;64.06
52651;BME280;38537;47.226;39.702;2022-10-16T04:49:44;101770.59;;;6.61;63.55
52651;BME280;38537;47.226;39.702;2022-10-16T04:52:11;101784.81;;;6.65;64.07
52651;BME280;38537;47.226;39.702;2022-10-16T04:54:38;101781.06;;;6.71;63.77
52651;BME280;38537;47.226;39.702;2022-10-16T04:57:05;101792.69;;;6.84;63.59
52651;BME280;38537;47.226;39.702;2022-10-16T04:59:33;101789.31;;;6.82;63.22
52651;BME280;38537;47.226;39.702;2022-10-16T05:02:00;101793.19;;;6.81;63.10
52651;BME280;38537;47.226;39.702;2022-10-16T05:04:31;101808.50;;;6.84;63.51
52651;BME280;38537;47.226;39.702;2022-10-16T05:06:59;101817.19;;;6.87;63.30
52651;BME280;38537;47.226;39.702;2022-10-16T05:09:27;101813.75;;;6.97;63.30
52651;BME280;38537;47.226;39.702;2022-10-16T05:11:55;101811.06;;;7.02;63.20
52651;BME280;38537;47.226;39.702;2022-10-16T05:14:22;101807.53;;;7.07;63.00
52651;BME280;38537;47.226;39.702;2022-10-16T05:16:49;101814.88;;;7.13;62.77
52651;BME280;38537;47.226;39.702;2022-10-16T05:19:17;101818.81;;;7.17;62.88
52651;BME280;38537;47.226;39.702;2022-10-16T05:21:54;101810.94;;;7.26;62.71
52651;BME280;38537;47.226;39.702;2022-10-16T05:24:21;101820.28;;;7.36;62.61
52651;BME280;38537;47.226;39.702;2022-10-16T05:26:50;101811.63;;;7.33;62.36
52651;BME280;38537;47.226;39.702;2022-10-16T05:29:17;101813.91;;;7.52;61.94
52651;BME280;38537;47.226;39.702;2022-10-16T05:31:45;101825.94;;;7.58;62.27
52651;BME280;38537;47.226;39.702;2022-10-16T05:34:12;101813.56;;;7.66;61.45
52651;BME280;38537;47.226;39.702;2022-10-16T05:36:40;101842.19;;;7.66;61.35
52651;BME280;38537;47.226;39.702;2022-10-16T05:39:07;101836.72;;;7.71;61.29
52651;BME280;38537;47.226;39.702;2022-10-16T05:41:34;101829.22;;;7.72;61.06
52651;BME280;38537;47.226;39.702;2022-10-16T05:44:04;101836.56;;;7.78;61.06
52651;BME280;38537;47.226;39.702;2022-10-16T05:46:32;101835.19;;;7.80;61.04
52651;BME280;38537;47.226;39.702;2022-10-16T05:49:00;101845.06;;;7.88;61.34
52651;BME280;38537;47.226;39.702;2022-10-16T05:51:27;101830.72;;;7.96;60.68
52651;BME280;38537;47.226;39.702;2022-10-16T05:53:55;101824.13;;;8.02;60.40
52651;BME280;38537;47.226;39.702;2022-10-16T05:56:22;101832.47;;;8.02;60.68
52651;BME280;38537;47.226;39.702;2022-10-16T05:58:49;101833.56;;;8.18;60.09
52651;BME280;38537;47.226;39.702;2022-10-16T06:01:18;101829.47;;;8.25;60.16
52651;BME280;38537;47.226;39.702;2022-10-16T06:03:46;101839.34;;;8.33;59.85
52651;BME280;38537;47.226;39.702;2022-10-16T06:06:15;101842.72;;;8.35;59.51
52651;BME280;38537;47.226;39.702;2022-10-16T06:08:44;101846.28;;;8.52;59.47
52651;BME280;38537;47.226;39.702;2022-10-16T06:11:17;101832.63;;;8.51;59.21
52651;BME280;38537;47.226;39.702;2022-10-16T06:13:49;101830.84;;;8.62;58.93
52651;BME280;38537;47.226;39.702;2022-10-16T06:16:16;101825.03;;;8.68;58.68
52651;BME280;38537;47.226;39.702;2022-10-16T06:18:43;101845.00;;;8.82;58.09
52651;BME280;38537;47.226;39.702;2022-10-16T06:21:16;101835.75;;;8.76;58.12
52651;BME280;38537;47.226;39.702;2022-10-16T06:23:43;101845.44;;;8.96;57.87
52651;BME280;38537;47.226;39.702;2022-10-16T06:26:16;101846.00;;;8.98;57.79
52651;BME280;38537;47.226;39.702;2022-10-16T06:28:43;101848.94;;;9.08;57.26
52651;BME280;38537;47.226;39.702;2022-10-16T06:31:12;101844.59;;;9.22;57.87
52651;BME280;38537;47.226;39.702;2022-10-16T06:33:40;101848.28;;;9.27;57.28
52651;BME280;38537;47.226;39.702;2022-10-16T06:36:15;101852.75;;;9.28;56.79
52651;BME280;38537;47.226;39.702;2022-10-16T06:38:44;101855.59;;;9.34;56.98
52651;BME280;38537;47.226;39.702;2022-10-16T06:41:13;101845.28;;;9.34;56.70
52651;BME280;38537;47.226;39.702;2022-10-16T06:43:41;101845.66;;;9.43;56.56
52651;BME280;38537;47.226;39.702;2022-10-16T06:46:10;101849.41;;;9.58;56.96
52651;BME280;38537;47.226;39.702;2022-10-16T06:48:37;101861.50;;;9.69;55.94
52651;BME280;38537;47.226;39.702;2022-10-16T06:51:14;101850.94;;;9.76;55.63
52651;BME280;38537;47.226;39.702;2022-10-16T06:53:44;101855.78;;;9.86;55.61
52651;BME280;38537;47.226;39.702;2022-10-16T06:56:29;101837.44;;;9.95;55.39
52651;BME280;38537;47.226;39.702;2022-10-16T06:58:58;101847.03;;;10.09;55.36
52651;BME280;38537;47.226;39.702;2022-10-16T07:01:26;101856.00;;;10.16;55.12
52651;BME280;38537;47.226;39.702;2022-10-16T07:03:55;101846.06;;;10.30;55.18
52651;BME280;38537;47.226;39.702;2022-10-16T07:06:24;101841.56;;;10.24;54.52
52651;BME280;38537;47.226;39.702;2022-10-16T07:08:52;101830.88;;;10.16;54.43
52651;BME280;38537;47.226;39.702;2022-10-16T07:11:21;101843.16;;;10.15;54.04
52651;BME280;38537;47.226;39.702;2022-10-16T07:13:50;101841.31;;;10.31;54.55
52651;BME280;38537;47.226;39.702;2022-10-16T07:16:27;101836.91;;;10.40;54.39
52651;BME280;38537;47.226;39.702;2022-10-16T07:18:56;101844.16;;;10.41;53.91
52651;BME280;38537;47.226;39.702;2022-10-16T07:21:29;101852.84;;;10.45;53.69
52651;BME280;38537;47.226;39.702;2022-10-16T07:23:59;101847.28;;;10.50;53.38
52651;BME280;38537;47.226;39.702;2022-10-16T07:26:31;101857.41;;;10.66;54.24
52651;BME280;38537;47.226;39.702;2022-10-16T07:28:59;101845.47;;;10.76;54.09
52651;BME280;38537;47.226;39.702;2022-10-16T07:31:27;101853.53;;;10.72;52.89
52651;BME280;38537;47.226;39.702;2022-10-16T07:33:57;101859.66;;;10.69;52.84
52651;BME280;38537;47.226;39.702;2022-10-16T07:36:25;101860.84;;;10.78;53.07
52651;BME280;38537;47.226;39.702;2022-10-16T07:38:52;101867.31;;;10.94;53.21
52651;BME280;38537;47.226;39.702;2022-10-16T07:41:26;101858.66;;;10.95;52.45
52651;BME280;38537;47.226;39.702;2022-10-16T07:43:54;101832.13;;;10.98;52.77
52651;BME280;38537;47.226;39.702;2022-10-16T07:46:22;101843.31;;;11.08;52.37
52651;BME280;38537;47.226;39.702;2022-10-16T07:48:50;101839.66;;;10.97;51.78
52651;BME280;38537;47.226;39.702;2022-10-16T07:51:19;101848.66;;;11.15;52.30
52651;BME280;38537;47.226;39.702;2022-10-16T07:53:47;101855.97;;;11.36;52.06
52651;BME280;38537;47.226;39.702;2022-10-16T07:56:16;101845.91;;;11.40;50.83
52651;BME280;38537;47.226;39.702;2022-10-16T07:58:43;101857.66;;;11.42;51.12
52651;BME280;38537;47.226;39.702;2022-10-16T08:01:13;101829.38;;;11.23;51.18
52651;BME280;38537;47.226;39.702;2022-10-16T08:03:45;101844.50;;;11.38;50.71
52651;BME280;38537;47.226;39.702;2022-10-16T08:06:13;101854.59;;;11.54;50.97
52651;BME280;38537;47.226;39.702;2022-10-16T08:08:41;101840.59;;;11.49;50.04
52651;BME280;38537;47.226;39.702;2022-10-16T08:11:09;101846.47;;;11.57;50.15
52651;BME280;38537;47.226;39.702;2022-10-16T08:13:36;101830.25;;;11.49;49.89
52651;BME280;38537;47.226;39.702;2022-10-16T08:16:04;101838.09;;;11.47;49.55
52651;BME280;38537;47.226;39.702;2022-10-16T08:18:35;101838.91;;;11.38;49.48
52651;BME280;38537;47.226;39.702;2022-10-16T08:21:04;101846.19;;;11.44;49.62
52651;BME280;38537;47.226;39.702;2022-10-16T08:23:32;101832.75;;;11.41;49.59
52651;BME280;38537;47.226;39.702;2022-10-16T08:26:08;101853.47;;;11.40;48.70
52651;BME280;38537;47.226;39.702;2022-10-16T08:28:36;101842.81;;;11.37;49.14
52651;BME280;38537;47.226;39.702;2022-10-16T08:31:15;101845.06;;;11.40;48.84
52651;BME280;38537;47.226;39.702;2022-10-16T08:33:44;101845.06;;;11.34;49.05
52651;BME280;38537;47.226;39.702;2022-10-16T08:36:14;101850.41;;;11.46;49.06
52651;BME280;38537;47.226;39.702;2022-10-16T08:38:41;101835.84;;;11.54;48.89
52651;BME280;38537;47.226;39.702;2022-10-16T08:47:24;101864.94;;;12.14;48.14
52651;BME280;38537;47.226;39.702;2022-10-16T08:49:59;101849.28;;;12.18;47.92
52651;BME280;38537;47.226;39.702;2022-10-16T08:52:31;101859.31;;;12.34;48.00
52651;BME280;38537;47.226;39.702;2022-10-16T08:55:01;101854.25;;;12.42;48.19
52651;BME280;38537;47.226;39.702;2022-10-16T08:57:29;101837.75;;;12.35;47.12
52651;BME280;38537;47.226;39.702;2022-10-16T09:00:12;101832.72;;;12.32;47.86
52651;BME280;38537;47.226;39.702;2022-10-16T09:03:05;101847.25;;;12.44;45.76
52651;BME280;38537;47.226;39.702;2022-10-16T09:06:06;101835.47;;;12.47;46.11
52651;BME280;38537;47.226;39.702;2022-10-16T09:08:51;101839.97;;;12.48;46.58
52651;BME280;38537;47.226;39.702;2022-10-16T09:11:58;101840.19;;;12.57;46.60
52651;BME280;38537;47.226;39.702;2022-10-16T09:17:26;101842.69;;;12.68;47.04
52651;BME280;38537;47.226;39.702;2022-10-16T09:22:43;101830.44;;;12.54;45.94
52651;BME280;38537;47.226;39.702;2022-10-16T09:25:17;101839.13;;;12.43;45.23
52651;BME280;38537;47.226;39.702;2022-10-16T09:27:47;101849.22;;;12.39;45.63
52651;BME280;38537;47.226;39.702;2022-10-16T09:30:19;101840.25;;;12.42;45.31
52651;BME280;38537;47.226;39.702;2022-10-16T09:32:50;101850.88;;;12.50;45.24
52651;BME280;38537;47.226;39.702;2022-10-16T09:35:32;101867.69;;;12.55;45.21
52651;BME280;38537;47.226;39.702;2022-10-16T09:38:00;101833.19;;;12.59;46.05
52651;BME280;38537;47.226;39.702;2022-10-16T09:40:36;101840.16;;;12.67;45.13
52651;BME280;38537;47.226;39.702;2022-10-16T09:46:07;101835.94;;;12.75;45.11
52651;BME280;38537;47.226;39.702;2022-10-16T09:51:04;101833.63;;;12.87;45.48
52651;BME280;38537;47.226;39.702;2022-10-16T09:53:44;101837.81;;;12.89;45.21
52651;BME280;38537;47.226;39.702;2022-10-16T09:56:22;101834.66;;;13.01;45.09
52651;BME280;38537;47.226;39.702;2022-10-16T09:58:59;101838.91;;;12.98;43.89
52651;BME280;38537;47.226;39.702;2022-10-16T10:01:31;101848.47;;;12.97;44.84
52651;BME280;38537;47.226;39.702;2022-10-16T10:04:02;101846.50;;;12.93;44.72
52651;BME280;38537;47.226;39.702;2022-10-16T10:06:31;101829.94;;;12.96;44.53
52651;BME280;38537;47.226;39.702;2022-10-16T10:09:02;101858.28;;;12.95;44.12
52651;BME280;38537;47.226;39.702;2022-10-16T10:11:45;101841.50;;;12.80;43.54
52651;BME280;38537;47.226;39.702;2022-10-16T10:14:38;101839.00;;;12.78;44.25
52651;BME280;38537;47.226;39.702;2022-10-16T10:17:26;101852.44;;;12.81;44.23
52651;BME280;38537;47.226;39.702;2022-10-16T10:19:59;101842.13;;;12.72;44.42
52651;BME280;38537;47.226;39.702;2022-10-16T10:22:40;101857.19;;;12.81;44.49
52651;BME280;38537;47.226;39.702;2022-10-16T10:25:23;101835.03;;;12.84;44.65
52651;BME280;38537;47.226;39.702;2022-10-16T10:36:17;101836.97;;;12.94;44.65
52651;BME280;38537;47.226;39.702;2022-10-16T10:50:02;101823.97;;;13.08;45.03
52651;BME280;38537;47.226;39.702;2022-10-16T11:01:15;101810.16;;;13.27;44.71
52651;BME280;38537;47.226;39.702;2022-10-16T11:07:15;101817.22;;;13.19;44.66
52651;BME280;38537;47.226;39.702;2022-10-16T11:09:52;101807.16;;;13.08;44.72
52651;BME280;38537;47.226;39.702;2022-10-16T11:12:46;101814.72;;;13.18;45.05
52651;BME280;38537;47.226;39.702;2022-10-16T11:15:28;101787.00;;;13.01;44.77
52651;BME280;38537;47.226;39.702;2022-10-16T11:20:33;101832.09;;;13.20;43.65
52651;BME280;38537;47.226;39.702;2022-10-16T11:25:46;101806.63;;;13.01;44.58
52651;BME280;38537;47.226;39.702;2022-10-16T11:28:23;101809.16;;;13.02;44.23
52651;BME280;38537;47.226;39.702;2022-10-16T11:31:19;101815.00;;;13.11;44.07
52651;BME280;38537;47.226;39.702;2022-10-16T11:36:40;101793.34;;;13.22;44.70
52651;BME280;38537;47.226;39.702;2022-10-16T11:39:29;101799.44;;;13.34;44.51
52651;BME280;38537;47.226;39.702;2022-10-16T11:42:13;101803.94;;;13.35;44.07
52651;BME280;38537;47.226;39.702;2022-10-16T11:48:08;101796.09;;;13.32;43.88
52651;BME280;38537;47.226;39.702;2022-10-16T11:50:51;101804.47;;;13.37;43.52
52651;BME280;38537;47.226;39.702;2022-10-16T11:53:53;101796.25;;;13.46;43.04
52651;BME280;38537;47.226;39.702;2022-10-16T11:56:25;101812.25;;;13.45;43.20
52651;BME280;38537;47.226;39.702;2022-10-16T12:01:28;101825.31;;;13.26;43.15
52651;BME280;38537;47.226;39.702;2022-10-16T12:04:24;101823.97;;;13.18;43.25
52651;BME280;38537;47.226;39.702;2022-10-16T12:07:08;101816.97;;;13.11;43.62
52651;BME280;38537;47.226;39.702;2022-10-16T12:09:40;101815.28;;;13.10;43.79
52651;BME280;38537;47.226;39.702;2022-10-16T12:12:37;101807.97;;;13.19;43.79
52651;BME280;38537;47.226;39.702;2022-10-16T12:17:53;101815.78;;;13.22;44.32
52651;BME280;38537;47.226;39.702;2022-10-16T12:20:24;101830.91;;;13.26;44.04
52651;BME280;38537;47.226;39.702;2022-10-16T12:23:00;101830.91;;;13.26;44.08
52651;BME280;38537;47.226;39.702;2022-10-16T12:25:34;101835.41;;;13.22;44.42
52651;BME280;38537;47.226;39.702;2022-10-16T12:28:05;101819.78;;;13.16;44.42
52651;BME280;38537;47.226;39.702;2022-10-16T12:30:36;101830.97;;;13.11;44.16
52651;BME280;38537;47.226;39.702;2022-10-16T12:33:06;101840.53;;;13.04;44.53
52651;BME280;38537;47.226;39.702;2022-10-16T12:35:44;101831.00;;;13.05;44.67
52651;BME280;38537;47.226;39.702;2022-10-16T12:38:21;101834.34;;;13.13;44.84
52651;BME280;38537;47.226;39.702;2022-10-16T12:43:41;101830.91;;;13.26;44.95
52651;BME280;38537;47.226;39.702;2022-10-16T12:48:43;101839.97;;;13.18;45.11
52651;BME280;38537;47.226;39.702;2022-10-16T13:02:44;101841.94;;;13.17;44.93
52651;BME280;38537;47.226;39.702;2022-10-16T13:21:42;101842.28;;;12.95;45.17
52651;BME280;38537;47.226;39.702;2022-10-16T13:24:42;101839.50;;;12.95;45.50
52651;BME280;38537;47.226;39.702;2022-10-16T13:27:38;101845.84;;;13.11;45.42
52651;BME280;38537;47.226;39.702;2022-10-16T13:35:32;101853.44;;;13.05;45.25
52651;BME280;38537;47.226;39.702;2022-10-16T13:38:13;101857.38;;;12.99;45.04
52651;BME280;38537;47.226;39.702;2022-10-16T13:46:06;101843.72;;;12.88;45.46
52651;BME280;38537;47.226;39.702;2022-10-16T13:48:34;101854.38;;;12.86;45.09
52651;BME280;38537;47.226;39.702;2022-10-16T13:51:05;101858.31;;;12.80;45.46
52651;BME280;38537;47.226;39.702;2022-10-16T13:53:35;101863.44;;;12.67;45.37
52651;BME280;38537;47.226;39.702;2022-10-16T13:56:05;101865.38;;;12.72;45.36
52651;BME280;38537;47.226;39.702;2022-10-16T13:58:33;101846.97;;;12.51;45.55
52651;BME280;38537;47.226;39.702;2022-10-16T14:01:05;101851.72;;;12.50;45.66
52651;BME280;38537;47.226;39.702;2022-10-16T14:03:43;101855.94;;;12.48;46.18
52651;BME280;38537;47.226;39.702;2022-10-16T14:06:20;101852.31;;;12.42;46.05
52651;BME280;38537;47.226;39.702;2022-10-16T14:09:04;101865.19;;;12.43;46.07
52651;BME280;38537;47.226;39.702;2022-10-16T14:11:33;101848.41;;;12.33;46.40
52651;BME280;38537;47.226;39.702;2022-10-16T14:14:05;101853.19;;;12.32;46.74
52651;BME280;38537;47.226;39.702;2022-10-16T14:16:40;101857.94;;;12.32;46.75
52651;BME280;38537;47.226;39.702;2022-10-16T14:19:22;101864.34;;;12.38;46.74
52651;BME280;38537;47.226;39.702;2022-10-16T14:21:51;101863.28;;;12.23;46.67
52651;BME280;38537;47.226;39.702;2022-10-16T14:24:33;101866.91;;;12.29;46.84
52651;BME280;38537;47.226;39.702;2022-10-16T14:27:02;101877.84;;;12.25;46.98
52651;BME280;38537;47.226;39.702;2022-10-16T14:29:30;101854.03;;;12.23;47.04
52651;BME280;38537;47.226;39.702;2022-10-16T14:32:20;101868.03;;;12.23;47.29
52651;BME280;38537;47.226;39.702;2022-10-16T14:34:53;101877.00;;;12.25;47.37
52651;BME280;38537;47.226;39.702;2022-10-16T14:37:26;101871.13;;;12.21;47.20
52651;BME280;38537;47.226;39.702;2022-10-16T14:39:55;101863.00;;;12.15;47.25
52651;BME280;38537;47.226;39.702;2022-10-16T14:42:24;101881.75;;;12.24;47.33
52651;BME280;38537;47.226;39.702;2022-10-16T14:44:54;101882.31;;;12.26;47.30
52651;BME280;38537;47.226;39.702;2022-10-16T14:47:24;101884.00;;;12.27;47.34
52651;BME280;38537;47.226;39.702;2022-10-16T14:49:54;101876.72;;;12.21;47.67
52651;BME280;38537;47.226;39.702;2022-10-16T14:52:24;101876.44;;;12.23;47.69
52651;BME280;38537;47.226;39.702;2022-10-16T14:54:51;101900.25;;;12.25;47.91
52651;BME280;38537;47.226;39.702;2022-10-16T14:57:26;101905.84;;;12.15;48.41
52651;BME280;38537;47.226;39.702;2022-10-16T14:59:55;101900.25;;;12.10;48.44
52651;BME280;38537;47.226;39.702;2022-10-16T15:02:28;101898.84;;;12.08;48.95
52651;BME280;38537;47.226;39.702;2022-10-16T15:04:57;101903.31;;;11.98;49.49
52651;BME280;38537;47.226;39.702;2022-10-16T15:07:25;101913.41;;;11.99;49.63
52651;BME280;38537;47.226;39.702;2022-10-16T15:09:53;101922.63;;;11.95;49.75
52651;BME280;38537;47.226;39.702;2022-10-16T15:12:21;101907.81;;;11.84;49.77
52651;BME280;38537;47.226;39.702;2022-10-16T15:14:48;101912.84;;;11.82;49.93
52651;BME280;38537;47.226;39.702;2022-10-16T15:17:15;101923.19;;;11.77;50.48
52651;BME280;38537;47.226;39.702;2022-10-16T15:19:47;101924.28;;;11.76;50.59
52651;BME280;38537;47.226;39.702;2022-10-16T15:22:14;101931.59;;;11.77;50.45